CheckWX is a tool to help pilots better visualize weather data.  It is not intended as a substitute for an official pre-flight weather briefing.

14:02:12 UTC

KFTK METAR
Godman AAF Airport
Fort Knox, Kentucky, USA
Current

1 hour ago

KFTK 201258Z 23004KT 10SM SCT200 29/25 A3005 RMK SLP171 T02900245
Observed
Jul-20 @ 12:58 UTC
Wind
  • 230° at 4 KTS
Visibility
10 SM
Flight Rules
VFR
Cloud Levels
  • Scattered at 20,000' AGL
Temperature
29°C / 84°F
Dewpoint
25°C / 77°F
Heat Index
34°C / 94°F
Humidity
79%
Altimeter
30.05" Hg
Pressure
1017.62 hPa
Previous

2 hours ago

KFTK 201156Z 00000KT 10SM FEW080 SCT200 25/25 A3005 RMK AO2A SLP171 T02520252 10252 20221 52012
Observed
Jul-20 @ 11:56 UTC
Visibility
10 SM
Flight Rules
VFR
Cloud Levels
  • Few at 8,000' AGL
  • Scattered at 20,000' AGL
Temperature
25°C / 77°F
Dewpoint
25°C / 77°F
Humidity
100%
Altimeter
30.05" Hg
Pressure
1017.62 hPa
Previous

3 hours ago

KFTK 201056Z 00000KT 4SM BR SCT080 23/23 A3004 RMK AO2A SLP167 T02250225
Observed
Jul-20 @ 10:56 UTC
Visibility
4 SM
Flight Rules
MVFR
Conditions
Mist
Cloud Levels
  • Scattered at 8,000' AGL
Temperature
23°C / 73°F
Dewpoint
23°C / 73°F
Humidity
100%
Altimeter
30.04" Hg
Pressure
1017.32 hPa